Time;durP1;ratioP1;P1;durP2;ratioP2;P2;SDS_P1;SDS_P2;PMS_P1;PMS_P2;Temp;Humidity;BMP_temperature;BMP_pressure;BME280_temperature;BME280_humidity;BME280_pressure;Samples;Min_cycle;Max_cycle;Signal;HPM_P1;HPM_P2
2022/11/23 00:02:15;;;;;;;0.40;0.40;;;;;;;11.37;100.00;98256.94;5123022;27;20195;-70
2022/11/23 00:04:42;;;;;;;0.50;0.50;;;;;;;11.38;100.00;98257.78;5117783;27;20202;-69
2022/11/23 00:07:09;;;;;;;1.17;1.17;;;;;;;11.36;100.00;98254.47;5125773;27;20198;-70
2022/11/23 00:09:36;;;;;;;0.50;0.50;;;;;;;11.45;100.00;98262.53;5123883;27;20558;-70
2022/11/23 00:12:02;;;;;;;0.43;0.43;;;;;;;11.51;100.00;98262.22;5118335;27;20199;-69
2022/11/23 00:14:29;;;;;;;0.50;0.50;;;;;;;11.50;100.00;98260.53;5115044;28;20603;-69
2022/11/23 00:16:57;;;;;;;0.50;0.50;;;;;;;11.53;100.00;98265.50;5114804;28;20187;-69
2022/11/23 00:19:24;;;;;;;0.60;0.60;;;;;;;11.52;100.00;98261.31;5129856;27;20190;-70
2022/11/23 00:21:51;;;;;;;0.40;0.40;;;;;;;11.39;100.00;98252.59;5112962;28;20220;-69
2022/11/23 00:24:17;;;;;;;0.50;0.50;;;;;;;11.37;100.00;98251.00;5121645;27;20197;-70
2022/11/23 00:26:44;;;;;;;0.47;0.47;;;;;;;11.38;100.00;98242.38;5127160;27;20213;-69
2022/11/23 00:29:11;;;;;;;0.50;0.50;;;;;;;11.35;100.00;98233.13;5134879;27;20190;-70
2022/11/23 00:31:37;;;;;;;0.60;0.60;;;;;;;11.36;100.00;98229.66;5133298;27;20198;-69
2022/11/23 00:34:06;;;;;;;0.60;0.60;;;;;;;11.39;100.00;98224.34;5114384;28;20559;-70
2022/11/23 00:36:32;;;;;;;0.53;0.53;;;;;;;11.34;100.00;98216.06;5113806;28;20252;-69
2022/11/23 00:38:59;;;;;;;0.53;0.53;;;;;;;11.31;100.00;98216.22;5114250;28;20198;-69
2022/11/23 00:41:27;;;;;;;0.60;0.60;;;;;;;11.25;100.00;98203.72;5114509;28;20654;-69
2022/11/23 00:43:54;;;;;;;1.00;1.00;;;;;;;11.26;100.00;98231.03;5133437;27;20649;-69
2022/11/23 00:46:23;;;;;;;0.60;0.60;;;;;;;11.22;100.00;98247.47;5131924;27;20210;-69
2022/11/23 00:48:52;;;;;;;0.60;0.60;;;;;;;10.99;100.00;98245.25;5116742;27;20202;-69
2022/11/23 00:51:23;;;;;;;0.50;0.50;;;;;;;10.86;100.00;98247.59;5121454;27;20198;-69
2022/11/23 00:53:50;;;;;;;0.53;0.53;;;;;;;10.81;100.00;98241.03;5121575;27;20198;-69
2022/11/23 00:56:17;;;;;;;0.83;0.83;;;;;;;10.61;100.00;98188.19;5126558;27;20683;-69
2022/11/23 00:58:48;;;;;;;0.53;0.53;;;;;;;10.81;100.00;98210.28;5113787;28;20226;-68
2022/11/23 01:01:16;;;;;;;0.73;0.73;;;;;;;10.88;100.00;98203.94;5113643;28;20539;-69
2022/11/23 01:03:45;;;;;;;0.50;0.50;;;;;;;10.85;100.00;98192.13;5113243;28;20234;-69
2022/11/23 01:06:14;;;;;;;0.60;0.60;;;;;;;10.77;100.00;98173.72;5113261;27;20227;-70
2022/11/23 01:08:42;;;;;;;0.87;0.87;;;;;;;10.73;100.00;98173.94;5113762;28;20191;-69
2022/11/23 01:11:12;;;;;;;0.60;0.60;;;;;;;10.69;100.00;98160.47;5113403;27;20248;-69
2022/11/23 01:13:40;;;;;;;0.80;0.80;;;;;;;10.74;100.00;98178.16;5115252;27;20256;-69
2022/11/23 01:16:08;;;;;;;0.77;0.77;;;;;;;10.79;100.00;98187.28;5112118;27;20247;-69
2022/11/23 01:18:34;;;;;;;0.60;0.60;;;;;;;10.86;100.00;98192.91;5122662;27;20208;-69
2022/11/23 01:21:01;;;;;;;0.53;0.53;;;;;;;10.79;100.00;98197.53;5111108;28;20202;-69
2022/11/23 01:23:29;;;;;;;0.50;0.50;;;;;;;10.81;100.00;98179.53;5118948;27;20263;-69
2022/11/23 01:25:57;;;;;;;0.50;0.50;;;;;;;10.70;100.00;98145.91;5113219;28;20264;-69
2022/11/23 01:28:24;;;;;;;1.03;1.03;;;;;;;10.38;100.00;98086.88;5120317;27;20200;-70
2022/11/23 01:30:51;;;;;;;1.67;1.57;;;;;;;10.25;100.00;98096.06;5119228;27;20578;-69
2022/11/23 01:33:18;;;;;;;0.80;0.80;;;;;;;10.33;100.00;98167.41;5112859;28;20206;-68
2022/11/23 01:35:44;;;;;;;0.83;0.83;;;;;;;10.35;100.00;98184.34;5113295;27;20194;-69
2022/11/23 01:38:11;;;;;;;0.70;0.70;;;;;;;10.40;100.00;98172.13;5118681;27;20199;-68
2022/11/23 01:40:42;;;;;;;0.70;0.70;;;;;;;10.39;100.00;98151.75;5132049;27;20202;-69
2022/11/23 01:43:15;;;;;;;0.60;0.60;;;;;;;10.44;100.00;98155.72;5124958;27;20194;-68
2022/11/23 01:45:44;;;;;;;0.60;0.60;;;;;;;10.47;100.00;98153.00;5119879;27;20577;-69
2022/11/23 01:48:17;;;;;;;0.60;0.60;;;;;;;10.54;100.00;98161.22;5115299;27;20203;-68
2022/11/23 01:50:49;;;;;;;0.70;0.70;;;;;;;10.51;100.00;98146.00;5112310;27;20203;-69
2022/11/23 01:53:16;;;;;;;0.60;0.60;;;;;;;10.64;100.00;98133.41;5122100;27;20187;-68
2022/11/23 01:55:45;;;;;;;0.60;0.60;;;;;;;10.68;100.00;98127.22;5108732;28;20243;-68
2022/11/23 01:58:15;;;;;;;0.50;0.50;;;;;;;10.71;100.00;98117.66;5112326;28;20195;-68
2022/11/23 02:00:43;;;;;;;0.60;0.60;;;;;;;10.74;100.00;98120.03;5127263;27;20190;-68
2022/11/23 02:03:12;;;;;;;0.93;0.93;;;;;;;10.78;100.00;98130.97;5124687;27;20190;-69
2022/11/23 02:05:43;;;;;;;0.50;0.50;;;;;;;10.83;100.00;98139.25;5114647;27;20700;-69
2022/11/23 02:08:12;;;;;;;0.60;0.60;;;;;;;10.81;100.00;98128.25;5117858;27;20203;-68
2022/11/23 02:10:39;;;;;;;0.57;0.57;;;;;;;10.87;100.00;98140.75;5123107;27;20190;-68
2022/11/23 02:13:08;;;;;;;0.37;0.37;;;;;;;10.86;100.00;98141.66;5126170;27;20194;-68
2022/11/23 02:15:37;;;;;;;0.83;0.83;;;;;;;10.87;100.00;98149.28;5122855;27;20203;-68
2022/11/23 02:18:07;;;;;;;0.60;0.60;;;;;;;10.90;100.00;98143.16;5123125;27;20198;-69
2022/11/23 02:20:34;;;;;;;1.40;1.40;;;;;;;10.93;100.00;98148.13;5111840;27;20195;-68
2022/11/23 02:23:14;;;;;;;0.90;0.90;;;;;;;10.96;100.00;98158.22;5112032;28;20202;-68
2022/11/23 02:25:54;;;;;;;0.67;0.67;;;;;;;10.86;100.00;98146.78;5111077;27;20218;-68
2022/11/23 02:28:25;;;;;;;0.40;0.40;;;;;;;10.85;100.00;98155.41;5128141;27;20201;-69
2022/11/23 02:30:54;;;;;;;0.77;0.77;;;;;;;10.83;100.00;98154.63;5115020;27;20677;-68
2022/11/23 02:33:21;;;;;;;0.83;0.83;;;;;;;10.82;100.00;98135.03;5124449;27;20194;-68
2022/11/23 02:35:50;;;;;;;0.53;0.53;;;;;;;10.82;100.00;98124.78;5113218;27;20187;-69
2022/11/23 02:38:18;;;;;;;0.70;0.70;;;;;;;10.82;100.00;98115.38;5112146;28;20198;-69
2022/11/23 02:40:45;;;;;;;0.40;0.40;;;;;;;10.80;100.00;98121.47;5129338;27;20198;-68
2022/11/23 02:43:14;;;;;;;1.03;1.03;;;;;;;10.67;100.00;98121.25;5102464;27;20203;-68
2022/11/23 02:45:45;;;;;;;0.70;0.70;;;;;;;10.45;100.00;98125.81;5117872;27;20213;-68
2022/11/23 02:48:12;;;;;;;0.70;0.70;;;;;;;10.32;100.00;98135.84;5114500;27;20279;-68
2022/11/23 02:50:39;;;;;;;0.80;0.80;;;;;;;10.25;100.00;98118.28;5117375;27;20599;-68
2022/11/23 02:53:06;;;;;;;0.60;0.60;;;;;;;10.28;100.00;98116.41;5118746;27;20695;-68
2022/11/23 02:55:33;;;;;;;0.50;0.50;;;;;;;10.17;100.00;98116.13;5120423;27;20206;-68
2022/11/23 02:57:59;;;;;;;0.60;0.60;;;;;;;9.93;100.00;98114.69;5113586;27;20210;-68
2022/11/23 03:00:27;;;;;;;0.40;0.40;;;;;;;9.89;100.00;98111.44;5125622;27;20194;-68
2022/11/23 03:02:54;;;;;;;0.80;0.80;;;;;;;9.92;100.00;98125.81;5125535;27;20220;-68
2022/11/23 03:05:21;;;;;;;0.70;0.70;;;;;;;9.93;100.00;98132.59;5111314;27;20582;-68
2022/11/23 03:07:48;;;;;;;3.60;1.07;;;;;;;9.78;100.00;98131.63;5126899;27;20635;-68
2022/11/23 03:10:15;;;;;;;0.87;0.87;;;;;;;9.72;100.00;98123.41;5129081;27;20246;-68
2022/11/23 03:12:42;;;;;;;0.70;0.70;;;;;;;9.80;100.00;98140.03;5125429;27;20573;-69
2022/11/23 03:15:09;;;;;;;0.60;0.60;;;;;;;9.76;100.00;98124.88;5114744;27;20198;-68
2022/11/23 03:17:38;;;;;;;0.57;0.57;;;;;;;9.71;100.00;98101.25;5111453;28;20247;-69
2022/11/23 03:20:05;;;;;;;0.70;0.70;;;;;;;9.85;100.00;98104.00;5118291;27;20202;-68
2022/11/23 03:22:32;;;;;;;0.50;0.50;;;;;;;9.92;100.00;98100.22;5111265;28;20755;-68
2022/11/23 03:24:59;;;;;;;0.60;0.60;;;;;;;9.92;100.00;98100.22;5111682;28;20662;-68
2022/11/23 03:27:25;;;;;;;0.60;0.60;;;;;;;9.89;100.00;98072.22;5121338;28;20225;-69
2022/11/23 03:29:52;;;;;;;0.70;0.70;;;;;;;9.99;100.00;98083.69;5131509;27;20198;-69
2022/11/23 03:32:19;;;;;;;0.70;0.70;;;;;;;9.98;100.00;98064.13;5109649;28;20191;-69
2022/11/23 03:34:47;;;;;;;0.60;0.60;;;;;;;10.15;100.00;98083.78;5119522;28;20194;-69
2022/11/23 03:37:14;;;;;;;1.07;0.80;;;;;;;10.24;100.00;98089.28;5121538;27;20193;-68
2022/11/23 03:39:40;;;;;;;1.00;1.00;;;;;;;10.32;100.00;98084.63;5134460;27;20201;-69
2022/11/23 03:42:07;;;;;;;0.73;0.73;;;;;;;10.28;100.00;98101.03;5127394;27;20623;-68
2022/11/23 03:44:34;;;;;;;0.60;0.60;;;;;;;10.21;100.00;98106.56;5114328;27;20206;-68
2022/11/23 03:47:01;;;;;;;0.50;0.50;;;;;;;10.21;100.00;98117.59;5123957;27;20715;-68
2022/11/23 03:49:28;;;;;;;0.70;0.70;;;;;;;10.16;100.00;98121.28;5127091;27;20202;-68
2022/11/23 03:51:56;;;;;;;0.60;0.60;;;;;;;10.17;100.00;98115.28;5126478;27;20203;-68
2022/11/23 03:54:22;;;;;;;0.60;0.60;;;;;;;10.17;100.00;98121.22;5113950;27;20202;-68
2022/11/23 03:56:49;;;;;;;0.50;0.50;;;;;;;10.21;100.00;98122.72;5129940;27;20546;-69
2022/11/23 03:59:16;;;;;;;0.60;0.60;;;;;;;10.23;100.00;98123.50;5124760;27;20198;-68
2022/11/23 04:01:43;;;;;;;0.60;0.60;;;;;;;10.24;100.00;98127.69;5124395;27;20701;-68
2022/11/23 04:04:09;;;;;;;0.60;0.60;;;;;;;10.19;100.00;98109.16;5119926;27;20191;-68
2022/11/23 04:06:36;;;;;;;0.63;0.63;;;;;;;10.11;100.00;98121.50;5121696;27;20229;-68
2022/11/23 04:09:04;;;;;;;0.40;0.40;;;;;;;10.03;100.00;98128.72;5127551;27;20198;-68
2022/11/23 04:11:31;;;;;;;0.80;0.80;;;;;;;10.07;100.00;98119.16;5128184;27;20194;-68
2022/11/23 04:13:58;;;;;;;0.60;0.60;;;;;;;9.94;100.00;98134.28;5114968;28;20674;-68
2022/11/23 04:16:24;;;;;;;0.50;0.50;;;;;;;9.92;100.00;98131.78;5114656;28;20190;-68
2022/11/23 04:18:51;;;;;;;0.50;0.50;;;;;;;9.95;100.00;98118.03;5113398;28;20197;-69
2022/11/23 04:21:18;;;;;;;0.77;0.77;;;;;;;10.03;100.00;98114.19;5114048;27;20195;-69
2022/11/23 04:23:45;;;;;;;1.00;1.00;;;;;;;9.98;100.00;98102.53;5128029;27;20194;-68
2022/11/23 04:26:13;;;;;;;0.83;0.83;;;;;;;10.01;100.00;98099.81;5114166;27;20206;-68
2022/11/23 04:28:40;;;;;;;0.60;0.60;;;;;;;9.95;100.00;98100.09;5131086;27;20197;-68
2022/11/23 04:31:06;;;;;;;0.70;0.70;;;;;;;9.95;100.00;98105.22;5117584;27;20527;-68
2022/11/23 04:33:33;;;;;;;0.87;0.87;;;;;;;9.92;100.00;98105.34;5113984;28;20194;-68
2022/11/23 04:36:00;;;;;;;0.50;0.50;;;;;;;9.89;100.00;98110.63;5113699;28;20198;-68
2022/11/23 04:38:27;;;;;;;0.50;0.50;;;;;;;9.91;100.00;98108.84;5121366;27;20190;-68
2022/11/23 04:40:54;;;;;;;0.60;0.60;;;;;;;9.94;100.00;98113.81;5117295;27;20542;-68
2022/11/23 04:43:22;;;;;;;0.50;0.50;;;;;;;9.97;100.00;98111.09;5114848;27;20194;-68
2022/11/23 04:45:48;;;;;;;0.50;0.50;;;;;;;9.99;100.00;98107.56;5112090;27;20211;-68
2022/11/23 04:48:15;;;;;;;0.40;0.40;;;;;;;10.04;100.00;98115.03;5113651;28;20259;-69
2022/11/23 04:50:42;;;;;;;0.67;0.67;;;;;;;10.08;100.00;98108.81;5112586;28;20255;-68
2022/11/23 04:53:09;;;;;;;0.70;0.70;;;;;;;10.12;100.00;98123.13;5117599;27;20572;-68
2022/11/23 04:55:36;;;;;;;0.53;0.53;;;;;;;10.15;100.00;98138.38;5125858;27;20209;-68
2022/11/23 04:58:02;;;;;;;0.70;0.70;;;;;;;10.15;100.00;98128.13;5131500;27;20205;-68
2022/11/23 05:00:31;;;;;;;0.53;0.53;;;;;;;10.10;100.00;98119.84;5119728;27;20670;-68
2022/11/23 05:03:00;;;;;;;0.70;0.70;;;;;;;10.15;100.00;98117.91;5122094;27;20198;-68
2022/11/23 05:05:27;;;;;;;0.60;0.60;;;;;;;10.18;100.00;98117.75;5120074;27;20223;-69
2022/11/23 05:07:54;;;;;;;0.60;0.60;;;;;;;10.18;100.00;98127.19;5114927;27;20682;-68
2022/11/23 05:10:20;;;;;;;0.60;0.60;;;;;;;10.21;100.00;98138.09;5113341;28;20693;-69
2022/11/23 05:12:47;;;;;;;0.50;0.50;;;;;;;10.26;100.00;98138.69;5113237;28;20203;-68
2022/11/23 05:15:14;;;;;;;0.60;0.60;;;;;;;10.30;100.00;98134.25;5114103;27;20247;-68
2022/11/23 05:17:42;;;;;;;0.50;0.50;;;;;;;10.29;100.00;98125.75;5132505;27;20190;-68
2022/11/23 05:20:11;;;;;;;0.60;0.60;;;;;;;10.17;100.00;98103.31;5119164;27;20203;-68
2022/11/23 05:22:37;;;;;;;0.60;0.60;;;;;;;10.31;100.00;98108.56;5120429;27;20659;-68
2022/11/23 05:25:05;;;;;;;0.50;0.50;;;;;;;10.34;100.00;98102.47;5112067;27;20221;-68
2022/11/23 05:27:32;;;;;;;0.90;0.90;;;;;;;10.34;100.00;98108.41;5119908;27;20215;-68
2022/11/23 05:29:59;;;;;;;0.50;0.50;;;;;;;10.33;100.00;98111.91;5113178;27;20252;-68
2022/11/23 05:32:26;;;;;;;0.70;0.70;;;;;;;10.32;100.00;98115.34;5112270;28;20439;-68
2022/11/23 05:34:54;;;;;;;0.50;0.50;;;;;;;10.19;100.00;98111.72;5106123;27;20229;-68
2022/11/23 05:37:21;;;;;;;0.60;0.60;;;;;;;10.22;100.00;98111.59;5108867;27;20577;-68
2022/11/23 05:39:48;;;;;;;0.50;0.50;;;;;;;10.18;100.00;98117.75;5108421;27;20225;-68
2022/11/23 05:42:14;;;;;;;0.73;0.73;;;;;;;10.16;100.00;98119.56;5110616;27;20627;-68
2022/11/23 05:44:41;;;;;;;0.57;0.57;;;;;;;10.19;100.00;98124.53;5111596;27;20655;-68
2022/11/23 05:47:08;;;;;;;0.50;0.50;;;;;;;10.14;100.00;98126.50;5113785;27;20339;-68
2022/11/23 05:49:35;;;;;;;0.50;0.50;;;;;;;10.16;100.00;98116.16;5112317;28;20214;-68
2022/11/23 05:52:03;;;;;;;0.40;0.40;;;;;;;10.18;100.00;98112.63;5114258;27;20202;-68
2022/11/23 05:54:30;;;;;;;0.50;0.50;;;;;;;10.20;100.00;98118.53;5122655;27;20201;-68
2022/11/23 05:56:57;;;;;;;0.50;0.50;;;;;;;10.23;100.00;98105.56;5118566;27;20690;-69
2022/11/23 05:59:24;;;;;;;0.60;0.60;;;;;;;10.32;100.00;98088.91;5127094;27;20198;-68
2022/11/23 06:01:51;;;;;;;0.40;0.40;;;;;;;10.38;100.00;98086.88;5121309;27;20202;-68
2022/11/23 06:04:17;;;;;;;0.70;0.70;;;;;;;10.44;100.00;98086.56;5122621;27;20206;-69
2022/11/23 06:06:44;;;;;;;0.50;0.50;;;;;;;10.51;100.00;98095.59;5116782;27;20693;-69
2022/11/23 06:09:12;;;;;;;0.53;0.53;;;;;;;10.56;100.00;98082.56;5132842;27;20198;-68
2022/11/23 06:11:39;;;;;;;0.57;0.57;;;;;;;10.54;100.00;98090.31;5123507;27;20207;-68
2022/11/23 06:14:06;;;;;;;0.50;0.50;;;;;;;10.46;100.00;98078.81;5112107;28;20203;-68
2022/11/23 06:16:33;;;;;;;0.97;0.97;;;;;;;10.49;100.00;98097.41;5111787;28;20213;-68
2022/11/23 06:18:59;;;;;;;0.60;0.60;;;;;;;10.53;100.00;98101.44;5120883;27;20194;-69
2022/11/23 06:21:29;;;;;;;0.50;0.50;;;;;;;10.59;100.00;98095.22;5120391;27;20198;-69
2022/11/23 06:23:56;;;;;;;0.60;0.60;;;;;;;10.65;100.00;98096.63;5114957;27;20248;-69
2022/11/23 06:26:25;;;;;;;0.53;0.53;;;;;;;10.68;100.00;98096.47;5111810;27;20195;-69
2022/11/23 06:28:51;;;;;;;0.40;0.40;;;;;;;10.74;100.00;98106.41;5114018;27;20198;-68
2022/11/23 06:31:18;;;;;;;0.87;0.87;;;;;;;10.78;100.00;98113.03;5113146;27;20206;-69
2022/11/23 06:33:45;;;;;;;0.50;0.50;;;;;;;10.73;100.00;98122.69;5128273;27;20194;-68
2022/11/23 06:36:12;;;;;;;0.50;0.50;;;;;;;10.70;100.00;98130.53;5115973;27;20576;-69
2022/11/23 06:38:39;;;;;;;1.13;1.13;;;;;;;10.71;100.00;98129.63;5115210;27;20234;-68
2022/11/23 06:41:06;;;;;;;0.60;0.60;;;;;;;10.72;100.00;98136.41;5119796;27;21508;-68
2022/11/23 06:43:34;;;;;;;0.50;0.50;;;;;;;10.75;100.00;98133.69;5107671;27;20278;-68
2022/11/23 06:46:05;;;;;;;1.10;1.10;;;;;;;10.76;100.00;98140.50;5116143;27;20201;-68
2022/11/23 06:48:32;;;;;;;0.50;0.50;;;;;;;10.74;100.00;98144.84;5111054;27;20253;-68
2022/11/23 06:50:59;;;;;;;0.70;0.70;;;;;;;10.74;100.00;98135.44;5109738;28;20199;-67
2022/11/23 06:53:26;;;;;;;0.50;0.50;;;;;;;10.75;100.00;98133.69;5119638;27;20226;-68
2022/11/23 06:55:57;;;;;;;0.50;0.50;;;;;;;10.68;100.00;98122.09;5118203;27;20198;-68
2022/11/23 06:58:24;;;;;;;0.50;0.50;;;;;;;10.74;100.00;98132.03;5126486;27;20247;-67
2022/11/23 07:00:52;;;;;;;0.50;0.50;;;;;;;10.80;100.00;98131.72;5121768;27;20252;-67
2022/11/23 07:03:22;;;;;;;0.50;0.50;;;;;;;10.85;100.00;98132.31;5118742;27;20198;-67
2022/11/23 07:05:49;;;;;;;0.47;0.47;;;;;;;10.93;100.00;98128.44;5122419;27;20222;-67
2022/11/23 07:08:15;;;;;;;0.50;0.50;;;;;;;11.01;100.00;98135.75;5121548;27;20213;-68
2022/11/23 07:10:42;;;;;;;0.50;0.50;;;;;;;11.05;100.00;98132.09;5114043;28;20632;-68
2022/11/23 07:13:10;;;;;;;0.53;0.53;;;;;;;11.20;100.00;98136.44;5121895;27;20193;-68
2022/11/23 07:15:38;;;;;;;0.57;0.57;;;;;;;11.27;100.00;98134.38;5127194;27;20237;-68
2022/11/23 07:18:07;;;;;;;0.40;0.40;;;;;;;11.33;100.00;98132.31;5131540;27;20255;-68
2022/11/23 07:20:34;;;;;;;0.40;0.40;;;;;;;11.33;100.00;98132.31;5118483;27;20202;-68
2022/11/23 07:23:02;;;;;;;0.43;0.43;;;;;;;11.34;100.00;98138.28;5115108;27;20543;-68
2022/11/23 07:25:29;;;;;;;0.40;0.40;;;;;;;11.45;100.00;98151.34;5109604;28;20251;-71
2022/11/23 07:27:57;;;;;;;0.40;0.40;;;;;;;11.46;100.00;98153.03;5110756;27;20218;-70
2022/11/23 07:30:24;;;;;;;0.70;0.70;;;;;;;11.44;100.00;98145.38;5109522;28;20201;-69
2022/11/23 07:32:50;;;;;;;0.53;0.53;;;;;;;11.46;100.00;98148.72;5118493;28;20202;-69
2022/11/23 07:35:19;;;;;;;0.43;0.43;;;;;;;11.50;100.00;98139.91;5114005;28;20662;-69
2022/11/23 07:37:46;;;;;;;0.60;0.60;;;;;;;11.58;100.00;98148.06;5110999;28;20624;-68
2022/11/23 07:40:14;;;;;;;0.57;0.57;;;;;;;11.63;100.00;98162.38;5121062;28;20619;-68
2022/11/23 07:42:40;;;;;;;0.50;0.50;;;;;;;11.63;100.00;98167.53;5115788;27;20731;-67
2022/11/23 07:45:08;;;;;;;1.13;1.13;;;;;;;11.67;100.00;98161.28;5131255;27;20699;-69
2022/11/23 07:47:35;;;;;;;0.50;0.50;;;;;;;11.68;100.00;98165.53;5117804;27;20223;-69
2022/11/23 07:50:02;;;;;;;0.70;0.70;;;;;;;11.73;100.00;98171.28;5103215;28;20214;-69
2022/11/23 07:52:30;;;;;;;0.90;0.90;;;;;;;11.74;100.00;98172.91;5104843;28;20230;-69
2022/11/23 07:54:59;;;;;;;0.60;0.60;;;;;;;11.77;100.00;98168.44;5109366;28;20203;-70
2022/11/23 07:57:25;;;;;;;0.40;0.40;;;;;;;11.82;100.00;98165.63;5107499;28;20199;-69
2022/11/23 07:59:52;;;;;;;1.03;1.03;;;;;;;11.89;100.00;98177.22;5105052;28;20693;-71
2022/11/23 08:02:19;;;;;;;1.73;1.70;;;;;;;11.93;100.00;98189.81;5106690;28;20207;-68
2022/11/23 08:04:46;;;;;;;0.60;0.60;;;;;;;11.96;100.00;98188.81;5108944;28;20252;-68
2022/11/23 08:07:13;;;;;;;1.40;1.37;;;;;;;11.93;100.00;98168.44;5107656;28;20211;-68
2022/11/23 08:09:41;;;;;;;0.70;0.70;;;;;;;12.09;100.00;98179.50;5105448;28;20684;-68
2022/11/23 08:12:08;;;;;;;0.70;0.70;;;;;;;12.16;100.00;98180.00;5108074;28;20207;-69
2022/11/23 08:14:35;;;;;;;0.47;0.47;;;;;;;12.05;100.00;98166.00;5116484;28;20322;-69
2022/11/23 08:17:02;;;;;;;0.50;0.50;;;;;;;12.20;100.00;98187.47;5117053;27;20209;-69
2022/11/23 08:19:28;;;;;;;0.50;0.50;;;;;;;12.25;100.00;98195.72;5113560;27;20658;-68
2022/11/23 08:21:55;;;;;;;1.17;1.17;;;;;;;12.28;100.00;98194.75;5118994;28;20205;-68
2022/11/23 08:24:22;;;;;;;0.40;0.40;;;;;;;12.30;100.00;98203.19;5113034;27;20215;-72
2022/11/23 08:26:50;;;;;;;0.40;0.40;;;;;;;12.24;100.00;98191.50;5111050;27;20237;-68
2022/11/23 08:29:17;;;;;;;0.50;0.50;;;;;;;12.32;100.00;98191.91;5110430;27;20283;-68
2022/11/23 08:31:44;;;;;;;0.50;0.50;;;;;;;12.33;100.00;98193.56;5113261;27;20692;-68
2022/11/23 08:34:11;;;;;;;0.60;0.60;;;;;;;12.40;100.00;98204.31;5121027;27;20563;-68
2022/11/23 08:36:38;;;;;;;0.70;0.70;;;;;;;12.43;100.00;98197.28;5118473;27;20206;-68
2022/11/23 08:39:04;;;;;;;0.50;0.50;;;;;;;12.45;100.00;98195.44;5122446;27;20201;-67
2022/11/23 08:41:31;;;;;;;0.80;0.80;;;;;;;12.47;100.00;98200.50;5120110;27;20279;-67
2022/11/23 08:43:59;;;;;;;0.43;0.43;;;;;;;12.52;100.00;98189.03;5123027;27;20194;-68
2022/11/23 08:46:26;;;;;;;0.53;0.53;;;;;;;12.52;100.00;98194.19;5117473;27;20262;-67
2022/11/23 08:48:53;;;;;;;0.60;0.60;;;;;;;12.54;100.00;98184.63;5111779;27;20582;-69
2022/11/23 08:51:21;;;;;;;0.50;0.50;;;;;;;12.53;100.00;98185.56;5112024;27;20210;-68
2022/11/23 08:53:48;;;;;;;0.70;0.70;;;;;;;12.57;100.00;98189.59;5115626;27;20207;-68
2022/11/23 08:56:15;;;;;;;0.50;0.50;;;;;;;12.56;100.00;98180.25;5121281;27;20285;-67
2022/11/23 08:58:42;;;;;;;0.50;0.50;;;;;;;12.38;100.00;98142.72;5114118;27;20213;-68
2022/11/23 09:01:11;;;;;;;0.50;0.50;;;;;;;12.68;100.00;98167.56;5110062;27;20615;-68
2022/11/23 09:03:38;;;;;;;0.43;0.43;;;;;;;12.64;100.00;98152.34;5111969;28;20206;-68
2022/11/23 09:06:05;;;;;;;0.50;0.50;;;;;;;12.78;100.00;98160.97;5114115;27;20330;-67
2022/11/23 09:08:32;;;;;;;0.63;0.63;;;;;;;12.84;100.00;98158.88;5112358;28;20627;-67
2022/11/23 09:11:00;;;;;;;0.70;0.70;;;;;;;12.81;100.00;98129.94;5112925;28;20202;-68
2022/11/23 09:13:27;;;;;;;0.70;0.70;;;;;;;13.03;100.00;98148.31;5111906;28;20198;-69
2022/11/23 09:15:58;;;;;;;1.00;1.00;;;;;;;13.11;100.00;98149.56;5116486;27;20205;-67
2022/11/23 09:18:26;;;;;;;0.70;0.70;;;;;;;13.17;100.00;98150.94;5114064;27;20287;-68
2022/11/23 09:20:53;;;;;;;1.17;1.17;;;;;;;13.27;100.00;98146.88;5112594;28;20566;-69
2022/11/23 09:23:20;;;;;;;0.43;0.43;;;;;;;13.35;100.00;98136.94;5115330;27;20422;-69
2022/11/23 09:25:48;;;;;;;0.47;0.47;;;;;;;13.47;100.00;98137.94;5111398;28;20218;-69
2022/11/23 09:28:18;;;;;;;0.40;0.40;;;;;;;13.52;100.00;98135.91;5113138;28;20666;-69
2022/11/23 09:30:45;;;;;;;0.60;0.60;;;;;;;13.53;100.00;98117.78;5116914;27;20657;-68
2022/11/23 09:33:12;;;;;;;0.63;0.63;;;;;;;13.74;100.00;98130.22;5114756;27;20198;-68
2022/11/23 09:35:40;;;;;;;0.60;0.60;;;;;;;13.78;100.00;98131.69;5124351;27;20198;-69
2022/11/23 09:38:07;;;;;;;0.50;0.50;;;;;;;13.90;100.00;98120.59;5117940;27;20259;-68
2022/11/23 09:40:38;;;;;;;0.40;0.40;;;;;;;13.90;100.00;98102.56;5111854;28;20210;-69
2022/11/23 09:43:22;;;;;;;0.50;0.50;;;;;;;13.95;100.00;98114.25;5111567;27;20251;-69
2022/11/23 09:45:51;;;;;;;0.60;0.60;;;;;;;13.98;100.00;98105.50;5110957;28;20198;-69
2022/11/23 09:48:47;;;;;;;0.60;0.60;;;;;;;14.01;100.00;98095.81;5110722;28;20264;-70
2022/11/23 09:51:17;;;;;;;0.47;0.47;;;;;;;14.11;100.00;98101.19;5116083;27;20203;-69
2022/11/23 09:53:49;;;;;;;0.63;0.63;;;;;;;14.20;100.00;98108.34;5112260;27;20605;-67
2022/11/23 09:56:20;;;;;;;0.60;0.60;;;;;;;14.12;100.00;98110.56;5125762;27;20205;-67
2022/11/23 09:58:48;;;;;;;0.50;0.50;;;;;;;14.19;100.00;98106.66;5111465;27;20738;-68
2022/11/23 10:01:16;;;;;;;0.50;0.50;;;;;;;14.26;100.00;98097.63;5119364;27;20198;-68
2022/11/23 10:03:44;;;;;;;0.47;0.47;;;;;;;14.37;100.00;98089.22;5111901;27;20207;-68
2022/11/23 10:06:20;;;;;;;0.40;0.40;;;;;;;14.43;100.00;98089.63;5113462;27;20218;-69
2022/11/23 10:09:06;;;;;;;0.40;0.40;;;;;;;14.44;100.00;98080.94;5110367;27;20224;-68
2022/11/23 10:11:52;;;;;;;0.40;0.40;;;;;;;14.49;100.00;98084.06;5112232;27;20638;-68
2022/11/23 10:14:38;;;;;;;0.60;0.60;;;;;;;14.48;100.00;98071.25;5109668;28;20686;-71
2022/11/23 10:17:11;;;;;;;0.43;0.43;;;;;;;14.47;100.00;98060.16;5108883;28;20207;-70
2022/11/23 10:19:55;;;;;;;0.50;0.50;;;;;;;14.59;100.00;98079.94;5112084;28;20204;-71
2022/11/23 10:22:29;;;;;;;0.43;0.43;;;;;;;14.64;100.00;98088.19;5107963;28;20434;-69
2022/11/23 10:24:56;;;;;;;0.60;0.60;;;;;;;14.71;100.00;98097.16;5113113;27;20195;-70
2022/11/23 10:27:25;;;;;;;0.50;0.50;;;;;;;14.54;100.00;98076.84;5116789;27;20207;-68
2022/11/23 10:29:52;;;;;;;0.40;0.40;;;;;;;14.64;100.00;98093.34;5125894;27;20194;-67
2022/11/23 10:32:29;;;;;;;0.43;0.43;;;;;;;14.67;100.00;98098.28;5119583;27;20193;-68
2022/11/23 10:35:03;;;;;;;0.50;0.50;;;;;;;14.61;100.00;98103.03;5124380;27;20220;-68
2022/11/23 10:37:32;;;;;;;0.50;0.50;;;;;;;14.49;100.00;98090.97;5120554;27;20217;-69
2022/11/23 10:51:52;;;;;;;0.87;0.87;;;;;;;15.29;100.00;98095.75;5107682;27;20496;-69
2022/11/23 10:54:23;;;;;;;0.60;0.60;;;;;;;15.39;100.00;98101.09;5088392;28;20276;-69
2022/11/23 10:56:51;;;;;;;0.50;0.50;;;;;;;15.32;100.00;98105.84;5086275;28;20206;-69
2022/11/23 10:59:42;;;;;;;0.50;0.50;;;;;;;15.23;100.00;98101.34;5086794;28;20219;-69
2022/11/23 11:02:16;;;;;;;0.50;0.50;;;;;;;15.08;100.00;98103.25;5072299;28;20728;-69
2022/11/23 11:04:44;;;;;;;0.80;0.80;;;;;;;15.01;100.00;98096.00;5083958;28;20202;-68
2022/11/23 11:07:22;;;;;;;0.40;0.40;;;;;;;15.02;100.00;98077.03;5085869;28;20433;-66
2022/11/23 11:09:55;;;;;;;0.50;0.50;;;;;;;15.08;100.00;98086.91;5086782;28;20231;-66
2022/11/23 11:12:22;;;;;;;0.53;0.53;;;;;;;14.92;100.00;98056.19;5087773;28;20199;-68
2022/11/23 11:15:04;;;;;;;0.40;0.40;;;;;;;15.08;100.00;98072.28;5087581;28;20659;-68
2022/11/23 11:17:34;;;;;;;0.40;0.40;;;;;;;14.98;100.00;98050.59;5085191;28;20207;-66
2022/11/23 11:20:21;;;;;;;0.40;0.40;;;;;;;15.03;100.00;98073.50;5087273;28;20218;-67
2022/11/23 11:22:49;;;;;;;0.40;0.40;;;;;;;15.00;100.00;98068.53;5082521;28;20210;-67
2022/11/23 11:25:29;;;;;;;0.50;0.50;;;;;;;15.07;100.00;98064.63;5085224;28;20207;-66
2022/11/23 11:27:56;;;;;;;0.40;0.40;;;;;;;15.13;100.00;98059.03;5083268;28;20501;-63
2022/11/23 11:30:24;;;;;;;0.70;0.70;;;;;;;15.26;100.00;98062.41;5083091;28;21094;-65
2022/11/23 11:32:58;;;;;;;0.50;0.50;;;;;;;15.42;100.00;98062.97;5086999;28;20200;-63
2022/11/23 11:35:27;;;;;;;0.50;0.50;;;;;;;15.49;100.00;98064.22;5082531;28;20233;-63
2022/11/23 11:38:00;;;;;;;0.43;0.43;;;;;;;15.51;100.00;98064.91;5082215;28;20666;-64
2022/11/23 11:40:33;;;;;;;0.73;0.73;;;;;;;15.51;100.00;98058.97;5086299;28;20218;-64
2022/11/23 11:43:05;;;;;;;0.50;0.50;;;;;;;15.47;100.00;98066.06;5086342;28;20204;-64
2022/11/23 11:45:37;;;;;;;0.50;0.50;;;;;;;15.50;100.00;98078.78;5084253;28;20198;-65